Disclaimer

Please do not use the information listed here in-flight or in-navigation, as they are not provided to us by the airports but are provided by volunteers, so they might be outdated.

Search


Regions


Airport information page

Radio informations:
KERMANSHAH TWR - 122.45 MHz
KERMANSHAH INFO - 126.8 MHz

Airport informations:
Latitude: 34° 20' 45.07" N
Longitude: 047° 09' 29.26" E
Elevation: 4301 feet - 1311 meters
Operating hours: Remarks
Operating agency: Military-civil joint use airport
Timezone: UTC+3:30
Fuel: Jet A1, without icing nhibitor.

100/130 MIL Spec, low lead, aviation gasoline (BLUE)

Runway information:
11/29 - 11216 x 148 feet< - >3419 x 45 meters

Recent METARs:
OICC 151100Z 10008KT 9999 FEW040TCU SCT090 16/05 Q1017 A3005 NOSIG
OICC 151130Z 15008KT 9999 FEW040TCU SCT090 16/04 Q1017 A3004 NOSIG
OICC 151200Z 16006KT 9999 FEW040TCU SCT045 16/05 Q1017 A3003 NOSIG

Airport on the map: